JST616 YSSY-YBCG
Flight info
| Callsign | JST616 |
|---|---|
| Flight time | N/A |
| Altitude | 35000 |
| Route | OLSEM Y193 BANDA Y43 BERNI |
| Aircraft | A321/M-SDE3FGHIRWY/LB1 |
Departure
| Time | 2026-04-24 09:20 |
|---|---|
| Airport | Sydney Kingsford Smith International Airport (YSSY) |
Arrival
| Time | N/A |
|---|---|
| Airport | Gold Coast Airport (YBCG) |
| Time | Latitude | Longitude | Altitude | Speed | Heading |
|---|---|---|---|---|---|
| 2026-04-24 09:05 | -33.93525 | 151.17770 | 30 ft | 0 kts | 279° |
| 2026-04-24 09:09 | -33.93526 | 151.17776 | 30 ft | 4 kts | 279° |
| 2026-04-24 09:09 | -33.93530 | 151.17808 | 30 ft | 4 kts | 274° |
| 2026-04-24 09:10 | -33.93528 | 151.17835 | 30 ft | 4 kts | 217° |
| 2026-04-24 09:10 | -33.93527 | 151.17838 | 30 ft | 4 kts | 190° |
| 2026-04-24 09:10 | -33.93554 | 151.17832 | 30 ft | 4 kts | 190° |
| 2026-04-24 09:10 | -33.93580 | 151.17827 | 30 ft | 4 kts | 190° |
| 2026-04-24 09:11 | -33.93600 | 151.17823 | 30 ft | 0 kts | 190° |
| 2026-04-24 09:14 | -33.93608 | 151.17821 | 30 ft | 3 kts | 190° |
| 2026-04-24 09:14 | -33.93659 | 151.17809 | 30 ft | 6 kts | 193° |
| 2026-04-24 09:14 | -33.93665 | 151.17807 | 30 ft | 0 kts | 193° |
| 2026-04-24 09:14 | -33.93668 | 151.17806 | 30 ft | 1 kts | 193° |
| 2026-04-24 09:15 | -33.93695 | 151.17798 | 30 ft | 6 kts | 194° |
| 2026-04-24 09:15 | -33.93744 | 151.17782 | 30 ft | 8 kts | 194° |
| 2026-04-24 09:15 | -33.93778 | 151.17772 | 30 ft | 3 kts | 194° |
| 2026-04-24 09:15 | -33.93807 | 151.17763 | 30 ft | 6 kts | 194° |
| 2026-04-24 09:16 | -33.93861 | 151.17768 | 30 ft | 12 kts | 167° |
| 2026-04-24 09:16 | -33.93961 | 151.17794 | 29 ft | 16 kts | 168° |
| 2026-04-24 09:16 | -33.94077 | 151.17824 | 29 ft | 18 kts | 168° |
| 2026-04-24 09:16 | -33.94202 | 151.17857 | 30 ft | 19 kts | 168° |
| 2026-04-24 09:17 | -33.94330 | 151.17889 | 30 ft | 20 kts | 168° |
| 2026-04-24 09:17 | -33.94466 | 151.17899 | 30 ft | 19 kts | 203° |
| 2026-04-24 09:17 | -33.94594 | 151.17901 | 30 ft | 19 kts | 167° |
| 2026-04-24 09:17 | -33.94727 | 151.17935 | 30 ft | 20 kts | 167° |
| 2026-04-24 09:18 | -33.94868 | 151.17968 | 30 ft | 21 kts | 168° |
| 2026-04-24 09:18 | -33.95012 | 151.18007 | 30 ft | 21 kts | 167° |
| 2026-04-24 09:18 | -33.95098 | 151.18102 | 30 ft | 18 kts | 87° |
| 2026-04-24 09:18 | -33.95074 | 151.18255 | 30 ft | 19 kts | 77° |
| 2026-04-24 09:19 | -33.95043 | 151.18419 | 30 ft | 21 kts | 77° |
| 2026-04-24 09:19 | -33.95011 | 151.18591 | 30 ft | 15 kts | 78° |
| 2026-04-24 09:19 | -33.94989 | 151.18724 | 28 ft | 18 kts | 78° |
| 2026-04-24 09:19 | -33.94985 | 151.18828 | 25 ft | 7 kts | 132° |
| 2026-04-24 09:20 | -33.95027 | 151.18842 | 24 ft | 13 kts | 165° |
| 2026-04-24 09:20 | -33.95648 | 151.19006 | 25 ft | 119 kts | 167° |
| 2026-04-24 09:20 | -33.96276 | 151.19166 | 45 ft | 157 kts | 168° |
| 2026-04-24 09:20 | -33.97310 | 151.19470 | 835 ft | 149 kts | 156° |
| 2026-04-24 09:21 | -33.98114 | 151.20279 | 1461 ft | 156 kts | 125° |
| 2026-04-24 09:21 | -33.98798 | 151.21372 | 1969 ft | 177 kts | 125° |
| 2026-04-24 09:21 | -33.99589 | 151.22628 | 2264 ft | 199 kts | 126° |
| 2026-04-24 09:21 | -34.00484 | 151.24044 | 2584 ft | 224 kts | 127° |
| 2026-04-24 09:22 | -34.01612 | 151.25428 | 3149 ft | 242 kts | 137° |
| 2026-04-24 09:22 | -34.02938 | 151.26783 | 3806 ft | 254 kts | 136° |
| 2026-04-24 09:22 | -34.03987 | 151.28465 | 4584 ft | 258 kts | 111° |
| 2026-04-24 09:22 | -34.04316 | 151.30580 | 5421 ft | 260 kts | 85° |
| 2026-04-24 09:23 | -34.03806 | 151.32672 | 6251 ft | 264 kts | 59° |
| 2026-04-24 09:23 | -34.02537 | 151.34262 | 7087 ft | 268 kts | 33° |
| 2026-04-24 09:23 | -34.00896 | 151.35349 | 7902 ft | 271 kts | 30° |
| 2026-04-24 09:23 | -33.99222 | 151.36425 | 8693 ft | 275 kts | 30° |
| 2026-04-24 09:24 | -33.97522 | 151.37522 | 9480 ft | 279 kts | 30° |
| 2026-04-24 09:24 | -33.95793 | 151.38641 | 10250 ft | 285 kts | 30° |
| 2026-04-24 09:24 | -33.94019 | 151.39796 | 10793 ft | 299 kts | 31° |
| 2026-04-24 09:24 | -33.92119 | 151.41038 | 11017 ft | 322 kts | 31° |
| 2026-04-24 09:25 | -33.90082 | 151.42372 | 11199 ft | 345 kts | 30° |
| 2026-04-24 09:25 | -33.87921 | 151.43783 | 11580 ft | 359 kts | 30° |
| 2026-04-24 09:25 | -33.85705 | 151.45221 | 12229 ft | 364 kts | 30° |
| 2026-04-24 09:25 | -33.83460 | 151.46678 | 12925 ft | 368 kts | 30° |
| 2026-04-24 09:26 | -33.81217 | 151.48133 | 13620 ft | 373 kts | 30° |
| 2026-04-24 09:26 | -33.78917 | 151.49621 | 14314 ft | 377 kts | 30° |
| 2026-04-24 09:26 | -33.76595 | 151.51123 | 14937 ft | 381 kts | 30° |
| 2026-04-24 09:26 | -33.74250 | 151.52642 | 15584 ft | 385 kts | 30° |
| 2026-04-24 09:27 | -33.71882 | 151.54173 | 16236 ft | 388 kts | 30° |
| 2026-04-24 09:27 | -33.69490 | 151.55723 | 16884 ft | 392 kts | 30° |
| 2026-04-24 09:27 | -33.67076 | 151.57284 | 17547 ft | 395 kts | 30° |
| 2026-04-24 09:27 | -33.64640 | 151.58855 | 18196 ft | 399 kts | 30° |
| 2026-04-24 09:28 | -33.62184 | 151.60439 | 18837 ft | 403 kts | 31° |
| 2026-04-24 09:28 | -33.59708 | 151.62039 | 19381 ft | 406 kts | 31° |
| 2026-04-24 09:28 | -33.57206 | 151.63655 | 19919 ft | 410 kts | 31° |
| 2026-04-24 09:28 | -33.54678 | 151.65285 | 20446 ft | 414 kts | 31° |
| 2026-04-24 09:29 | -33.52132 | 151.66928 | 20967 ft | 418 kts | 31° |
| 2026-04-24 09:29 | -33.49560 | 151.68585 | 21475 ft | 422 kts | 31° |
| 2026-04-24 09:29 | -33.46962 | 151.70255 | 21972 ft | 425 kts | 31° |
| 2026-04-24 09:29 | -33.44381 | 151.71914 | 22450 ft | 429 kts | 31° |
| 2026-04-24 09:30 | -33.41780 | 151.73582 | 22853 ft | 431 kts | 28° |
| 2026-04-24 09:30 | -33.38198 | 151.75842 | 23413 ft | 437 kts | 28° |
| 2026-04-24 09:30 | -33.36317 | 151.76763 | 23735 ft | 442 kts | 22° |
| 2026-04-24 09:30 | -33.33339 | 151.77784 | 24169 ft | 447 kts | 18° |
| 2026-04-24 09:31 | -33.30331 | 151.78756 | 24555 ft | 450 kts | 18° |
| 2026-04-24 09:31 | -33.27299 | 151.79737 | 24934 ft | 453 kts | 18° |
| 2026-04-24 09:31 | -33.24229 | 151.80719 | 25170 ft | 459 kts | 18° |
| 2026-04-24 09:31 | -33.21151 | 151.81699 | 25680 ft | 458 kts | 18° |
| 2026-04-24 09:32 | -33.18060 | 151.82685 | 26124 ft | 460 kts | 18° |
| 2026-04-24 09:32 | -33.14961 | 151.83677 | 26528 ft | 462 kts | 18° |
| 2026-04-24 09:32 | -33.11889 | 151.84665 | 26916 ft | 464 kts | 18° |
| 2026-04-24 09:32 | -33.08762 | 151.85675 | 27298 ft | 466 kts | 18° |
| 2026-04-24 09:33 | -33.05427 | 151.86751 | 27708 ft | 469 kts | 18° |
| 2026-04-24 09:33 | -33.02386 | 151.87735 | 28079 ft | 471 kts | 18° |
| 2026-04-24 09:33 | -32.99217 | 151.88760 | 28468 ft | 473 kts | 18° |